sensor_id;sensor_type;location;lat;lon;timestamp;temperature;humidity
38684;DHT22;24910;53.248;-6.134;2022-12-18T00:00:23;5.20;84.30
38684;DHT22;24910;53.248;-6.134;2022-12-18T00:02:53;5.30;84.50
38684;DHT22;24910;53.248;-6.134;2022-12-18T00:05:22;5.30;84.50
38684;DHT22;24910;53.248;-6.134;2022-12-18T00:07:51;5.40;84.40
38684;DHT22;24910;53.248;-6.134;2022-12-18T00:10:20;5.40;84.50
38684;DHT22;24910;53.248;-6.134;2022-12-18T00:12:49;5.50;84.60
38684;DHT22;24910;53.248;-6.134;2022-12-18T00:15:18;5.50;84.60
38684;DHT22;24910;53.248;-6.134;2022-12-18T00:17:48;5.50;84.70
38684;DHT22;24910;53.248;-6.134;2022-12-18T00:20:17;5.60;84.80
38684;DHT22;24910;53.248;-6.134;2022-12-18T00:22:53;5.60;84.90
38684;DHT22;24910;53.248;-6.134;2022-12-18T00:25:23;5.70;85.10
38684;DHT22;24910;53.248;-6.134;2022-12-18T00:27:52;5.80;85.20
38684;DHT22;24910;53.248;-6.134;2022-12-18T00:30:21;5.80;85.20
38684;DHT22;24910;53.248;-6.134;2022-12-18T00:32:51;5.80;85.40
38684;DHT22;24910;53.248;-6.134;2022-12-18T00:35:20;5.80;85.40
38684;DHT22;24910;53.248;-6.134;2022-12-18T00:37:50;5.80;85.50
38684;DHT22;24910;53.248;-6.134;2022-12-18T00:40:19;5.80;85.50
38684;DHT22;24910;53.248;-6.134;2022-12-18T00:42:48;5.80;85.70
38684;DHT22;24910;53.248;-6.134;2022-12-18T00:45:26;5.90;85.80
38684;DHT22;24910;53.248;-6.134;2022-12-18T00:47:57;5.90;85.80
38684;DHT22;24910;53.248;-6.134;2022-12-18T00:50:26;5.90;85.90
38684;DHT22;24910;53.248;-6.134;2022-12-18T00:52:55;5.90;86.00
38684;DHT22;24910;53.248;-6.134;2022-12-18T00:55:24;5.90;86.10
38684;DHT22;24910;53.248;-6.134;2022-12-18T00:57:53;5.90;86.20
38684;DHT22;24910;53.248;-6.134;2022-12-18T01:00:22;5.90;86.20
38684;DHT22;24910;53.248;-6.134;2022-12-18T01:02:51;5.90;86.30
38684;DHT22;24910;53.248;-6.134;2022-12-18T01:05:22;5.90;86.40
38684;DHT22;24910;53.248;-6.134;2022-12-18T01:07:51;5.90;86.40
38684;DHT22;24910;53.248;-6.134;2022-12-18T01:10:20;5.90;86.50
38684;DHT22;24910;53.248;-6.134;2022-12-18T01:12:49;5.90;86.60
38684;DHT22;24910;53.248;-6.134;2022-12-18T01:15:18;5.90;86.60
38684;DHT22;24910;53.248;-6.134;2022-12-18T01:17:48;5.90;86.70
38684;DHT22;24910;53.248;-6.134;2022-12-18T01:20:17;5.90;86.80
38684;DHT22;24910;53.248;-6.134;2022-12-18T01:22:47;5.90;87.00
38684;DHT22;24910;53.248;-6.134;2022-12-18T01:25:16;6.00;87.40
38684;DHT22;24910;53.248;-6.134;2022-12-18T01:27:45;6.00;87.50
38684;DHT22;24910;53.248;-6.134;2022-12-18T01:30:14;6.10;87.70
38684;DHT22;24910;53.248;-6.134;2022-12-18T01:32:43;6.10;87.90
38684;DHT22;24910;53.248;-6.134;2022-12-18T01:35:12;6.20;88.30
38684;DHT22;24910;53.248;-6.134;2022-12-18T01:37:41;6.20;88.70
38684;DHT22;24910;53.248;-6.134;2022-12-18T01:40:12;6.30;89.00
38684;DHT22;24910;53.248;-6.134;2022-12-18T01:42:41;6.40;89.40
38684;DHT22;24910;53.248;-6.134;2022-12-18T01:45:26;6.40;89.50
38684;DHT22;24910;53.248;-6.134;2022-12-18T01:47:58;6.40;89.70
38684;DHT22;24910;53.248;-6.134;2022-12-18T01:50:31;6.40;89.80
38684;DHT22;24910;53.248;-6.134;2022-12-18T01:53:05;6.50;90.00
38684;DHT22;24910;53.248;-6.134;2022-12-18T01:55:40;6.50;90.00
38684;DHT22;24910;53.248;-6.134;2022-12-18T01:58:11;6.50;90.00
38684;DHT22;24910;53.248;-6.134;2022-12-18T02:00:40;6.50;90.00
38684;DHT22;24910;53.248;-6.134;2022-12-18T02:03:09;6.60;90.00
38684;DHT22;24910;53.248;-6.134;2022-12-18T02:05:44;6.60;90.00
38684;DHT22;24910;53.248;-6.134;2022-12-18T02:08:19;6.70;90.00
38684;DHT22;24910;53.248;-6.134;2022-12-18T02:10:56;6.70;89.90
38684;DHT22;24910;53.248;-6.134;2022-12-18T02:13:32;6.70;89.80
38684;DHT22;24910;53.248;-6.134;2022-12-18T02:16:10;6.70;89.60
38684;DHT22;24910;53.248;-6.134;2022-12-18T02:18:44;6.80;89.60
38684;DHT22;24910;53.248;-6.134;2022-12-18T02:21:22;6.80;89.40
38684;DHT22;24910;53.248;-6.134;2022-12-18T02:24:03;6.90;89.60
38684;DHT22;24910;53.248;-6.134;2022-12-18T02:26:40;7.00;89.70
38684;DHT22;24910;53.248;-6.134;2022-12-18T02:29:15;7.00;89.90
38684;DHT22;24910;53.248;-6.134;2022-12-18T02:31:49;7.10;90.10
38684;DHT22;24910;53.248;-6.134;2022-12-18T02:34:21;7.20;90.10
38684;DHT22;24910;53.248;-6.134;2022-12-18T02:36:53;7.20;90.20
38684;DHT22;24910;53.248;-6.134;2022-12-18T02:39:24;7.20;90.30
38684;DHT22;24910;53.248;-6.134;2022-12-18T02:42:03;7.20;90.40
38684;DHT22;24910;53.248;-6.134;2022-12-18T02:44:42;7.20;90.40
38684;DHT22;24910;53.248;-6.134;2022-12-18T02:47:14;7.30;90.50
38684;DHT22;24910;53.248;-6.134;2022-12-18T02:49:52;7.30;90.60
38684;DHT22;24910;53.248;-6.134;2022-12-18T02:52:30;7.30;90.70
38684;DHT22;24910;53.248;-6.134;2022-12-18T02:55:12;7.30;90.60
38684;DHT22;24910;53.248;-6.134;2022-12-18T02:57:55;7.40;90.60
38684;DHT22;24910;53.248;-6.134;2022-12-18T03:00:35;7.40;90.60
38684;DHT22;24910;53.248;-6.134;2022-12-18T03:03:09;7.40;90.60
38684;DHT22;24910;53.248;-6.134;2022-12-18T03:05:43;7.40;90.60
38684;DHT22;24910;53.248;-6.134;2022-12-18T03:08:17;7.40;90.50
38684;DHT22;24910;53.248;-6.134;2022-12-18T03:10:52;7.40;90.50
38684;DHT22;24910;53.248;-6.134;2022-12-18T03:13:30;7.40;90.40
38684;DHT22;24910;53.248;-6.134;2022-12-18T03:16:01;7.40;90.30
38684;DHT22;24910;53.248;-6.134;2022-12-18T03:18:34;7.40;90.20
38684;DHT22;24910;53.248;-6.134;2022-12-18T03:21:06;7.40;90.20
38684;DHT22;24910;53.248;-6.134;2022-12-18T03:23:42;7.40;90.10
38684;DHT22;24910;53.248;-6.134;2022-12-18T03:26:16;7.40;90.00
38684;DHT22;24910;53.248;-6.134;2022-12-18T03:28:53;7.40;89.90
38684;DHT22;24910;53.248;-6.134;2022-12-18T03:31:25;7.40;89.70
38684;DHT22;24910;53.248;-6.134;2022-12-18T03:33:59;7.40;89.60
38684;DHT22;24910;53.248;-6.134;2022-12-18T03:36:38;7.40;89.60
38684;DHT22;24910;53.248;-6.134;2022-12-18T03:39:07;7.50;89.50
38684;DHT22;24910;53.248;-6.134;2022-12-18T03:41:41;7.50;89.30
38684;DHT22;24910;53.248;-6.134;2022-12-18T03:44:37;7.40;89.30
38684;DHT22;24910;53.248;-6.134;2022-12-18T03:47:10;7.40;89.20
38684;DHT22;24910;53.248;-6.134;2022-12-18T03:49:48;7.40;89.30
38684;DHT22;24910;53.248;-6.134;2022-12-18T03:52:25;7.40;89.40
38684;DHT22;24910;53.248;-6.134;2022-12-18T03:54:56;7.40;89.50
38684;DHT22;24910;53.248;-6.134;2022-12-18T03:57:29;7.50;89.50
38684;DHT22;24910;53.248;-6.134;2022-12-18T04:00:05;7.50;89.50
38684;DHT22;24910;53.248;-6.134;2022-12-18T04:02:44;7.50;89.70
38684;DHT22;24910;53.248;-6.134;2022-12-18T04:05:23;7.50;89.90
38684;DHT22;24910;53.248;-6.134;2022-12-18T04:07:53;7.50;89.90
38684;DHT22;24910;53.248;-6.134;2022-12-18T04:10:26;7.50;90.00
38684;DHT22;24910;53.248;-6.134;2022-12-18T04:12:58;7.50;90.00
38684;DHT22;24910;53.248;-6.134;2022-12-18T04:15:29;7.60;90.00
38684;DHT22;24910;53.248;-6.134;2022-12-18T04:17:58;7.60;90.00
38684;DHT22;24910;53.248;-6.134;2022-12-18T04:20:36;7.60;90.10
38684;DHT22;24910;53.248;-6.134;2022-12-18T04:23:05;7.70;90.00
38684;DHT22;24910;53.248;-6.134;2022-12-18T04:25:34;7.70;90.00
38684;DHT22;24910;53.248;-6.134;2022-12-18T04:28:13;7.70;90.00
38684;DHT22;24910;53.248;-6.134;2022-12-18T04:30:43;7.70;90.10
38684;DHT22;24910;53.248;-6.134;2022-12-18T04:33:14;7.60;90.10
38684;DHT22;24910;53.248;-6.134;2022-12-18T04:35:46;7.70;90.20
38684;DHT22;24910;53.248;-6.134;2022-12-18T04:38:15;7.70;90.20
38684;DHT22;24910;53.248;-6.134;2022-12-18T04:40:45;7.70;90.20
38684;DHT22;24910;53.248;-6.134;2022-12-18T04:43:22;7.80;90.30
38684;DHT22;24910;53.248;-6.134;2022-12-18T04:45:52;7.80;90.30
38684;DHT22;24910;53.248;-6.134;2022-12-18T04:48:21;7.80;90.40
38684;DHT22;24910;53.248;-6.134;2022-12-18T04:50:50;7.80;90.40
38684;DHT22;24910;53.248;-6.134;2022-12-18T04:53:19;7.80;90.40
38684;DHT22;24910;53.248;-6.134;2022-12-18T04:55:48;7.80;90.40
38684;DHT22;24910;53.248;-6.134;2022-12-18T04:58:17;7.80;90.40
38684;DHT22;24910;53.248;-6.134;2022-12-18T05:00:46;7.80;90.40
38684;DHT22;24910;53.248;-6.134;2022-12-18T05:03:17;7.80;90.40
38684;DHT22;24910;53.248;-6.134;2022-12-18T05:05:49;7.80;90.50
38684;DHT22;24910;53.248;-6.134;2022-12-18T05:08:18;7.90;90.50
38684;DHT22;24910;53.248;-6.134;2022-12-18T05:10:47;7.90;90.50
38684;DHT22;24910;53.248;-6.134;2022-12-18T05:13:16;7.90;90.50
38684;DHT22;24910;53.248;-6.134;2022-12-18T05:15:51;7.90;90.50
38684;DHT22;24910;53.248;-6.134;2022-12-18T05:18:22;7.90;90.40
38684;DHT22;24910;53.248;-6.134;2022-12-18T05:20:52;7.90;90.40
38684;DHT22;24910;53.248;-6.134;2022-12-18T05:23:23;7.90;90.30
38684;DHT22;24910;53.248;-6.134;2022-12-18T05:25:55;7.90;90.30
38684;DHT22;24910;53.248;-6.134;2022-12-18T05:28:25;7.90;90.30
38684;DHT22;24910;53.248;-6.134;2022-12-18T05:30:56;7.80;90.30
38684;DHT22;24910;53.248;-6.134;2022-12-18T05:33:29;7.80;90.30
38684;DHT22;24910;53.248;-6.134;2022-12-18T05:36:03;7.80;90.40
38684;DHT22;24910;53.248;-6.134;2022-12-18T05:38:34;7.80;90.40
38684;DHT22;24910;53.248;-6.134;2022-12-18T05:41:04;7.80;90.40
38684;DHT22;24910;53.248;-6.134;2022-12-18T05:43:34;7.80;90.40
38684;DHT22;24910;53.248;-6.134;2022-12-18T05:46:05;7.80;90.40
38684;DHT22;24910;53.248;-6.134;2022-12-18T05:48:36;7.80;90.40
38684;DHT22;24910;53.248;-6.134;2022-12-18T05:51:07;7.70;90.40
38684;DHT22;24910;53.248;-6.134;2022-12-18T05:53:36;7.80;90.50
38684;DHT22;24910;53.248;-6.134;2022-12-18T05:56:08;7.80;90.50
38684;DHT22;24910;53.248;-6.134;2022-12-18T05:58:37;7.80;90.40
38684;DHT22;24910;53.248;-6.134;2022-12-18T06:01:08;7.80;90.40
38684;DHT22;24910;53.248;-6.134;2022-12-18T06:03:39;7.80;90.50
38684;DHT22;24910;53.248;-6.134;2022-12-18T06:06:14;7.80;90.50
38684;DHT22;24910;53.248;-6.134;2022-12-18T06:08:43;7.80;90.60
38684;DHT22;24910;53.248;-6.134;2022-12-18T06:11:15;7.70;90.50
38684;DHT22;24910;53.248;-6.134;2022-12-18T06:13:44;7.70;90.60
38684;DHT22;24910;53.248;-6.134;2022-12-18T06:16:14;7.80;90.60
38684;DHT22;24910;53.248;-6.134;2022-12-18T06:18:44;7.70;90.60
38684;DHT22;24910;53.248;-6.134;2022-12-18T06:21:13;7.70;90.70
38684;DHT22;24910;53.248;-6.134;2022-12-18T06:23:42;7.70;90.70
38684;DHT22;24910;53.248;-6.134;2022-12-18T06:26:13;7.70;90.70
38684;DHT22;24910;53.248;-6.134;2022-12-18T06:28:42;7.70;90.70
38684;DHT22;24910;53.248;-6.134;2022-12-18T06:31:11;7.60;90.80
38684;DHT22;24910;53.248;-6.134;2022-12-18T06:33:41;7.50;90.80
38684;DHT22;24910;53.248;-6.134;2022-12-18T06:36:12;7.50;90.80
38684;DHT22;24910;53.248;-6.134;2022-12-18T06:38:42;7.40;90.80
38684;DHT22;24910;53.248;-6.134;2022-12-18T06:41:13;7.40;90.70
38684;DHT22;24910;53.248;-6.134;2022-12-18T06:43:43;7.30;90.70
38684;DHT22;24910;53.248;-6.134;2022-12-18T06:46:12;7.30;90.60
38684;DHT22;24910;53.248;-6.134;2022-12-18T06:48:42;7.20;90.50
38684;DHT22;24910;53.248;-6.134;2022-12-18T06:51:12;7.20;90.50
38684;DHT22;24910;53.248;-6.134;2022-12-18T06:53:44;7.10;90.50
38684;DHT22;24910;53.248;-6.134;2022-12-18T06:56:13;7.10;90.50
38684;DHT22;24910;53.248;-6.134;2022-12-18T06:58:42;7.00;90.50
38684;DHT22;24910;53.248;-6.134;2022-12-18T07:01:12;7.00;90.40
38684;DHT22;24910;53.248;-6.134;2022-12-18T07:03:42;6.90;90.50
38684;DHT22;24910;53.248;-6.134;2022-12-18T07:06:16;6.90;90.40
38684;DHT22;24910;53.248;-6.134;2022-12-18T07:08:46;6.90;90.40
38684;DHT22;24910;53.248;-6.134;2022-12-18T07:11:16;6.90;90.30
38684;DHT22;24910;53.248;-6.134;2022-12-18T07:13:46;6.90;90.30
38684;DHT22;24910;53.248;-6.134;2022-12-18T07:16:16;6.90;90.20
38684;DHT22;24910;53.248;-6.134;2022-12-18T07:18:52;6.80;90.10
38684;DHT22;24910;53.248;-6.134;2022-12-18T07:21:25;6.90;90.00
38684;DHT22;24910;53.248;-6.134;2022-12-18T07:23:54;6.80;89.90
38684;DHT22;24910;53.248;-6.134;2022-12-18T07:26:23;6.90;89.80
38684;DHT22;24910;53.248;-6.134;2022-12-18T07:28:55;6.90;89.60
38684;DHT22;24910;53.248;-6.134;2022-12-18T07:31:26;7.00;89.60
38684;DHT22;24910;53.248;-6.134;2022-12-18T07:33:55;7.00;89.50
38684;DHT22;24910;53.248;-6.134;2022-12-18T07:36:26;7.00;89.50
38684;DHT22;24910;53.248;-6.134;2022-12-18T07:38:55;7.10;89.50
38684;DHT22;24910;53.248;-6.134;2022-12-18T07:41:24;7.10;89.50
38684;DHT22;24910;53.248;-6.134;2022-12-18T07:43:53;7.10;89.50
38684;DHT22;24910;53.248;-6.134;2022-12-18T07:46:22;7.10;89.60
38684;DHT22;24910;53.248;-6.134;2022-12-18T07:48:52;7.20;89.60
38684;DHT22;24910;53.248;-6.134;2022-12-18T07:51:21;7.20;89.40
38684;DHT22;24910;53.248;-6.134;2022-12-18T07:53:51;7.20;89.40
38684;DHT22;24910;53.248;-6.134;2022-12-18T07:56:20;7.20;89.40
38684;DHT22;24910;53.248;-6.134;2022-12-18T07:58:56;7.30;89.50
38684;DHT22;24910;53.248;-6.134;2022-12-18T08:01:25;7.20;89.50
38684;DHT22;24910;53.248;-6.134;2022-12-18T08:03:54;7.20;89.60
38684;DHT22;24910;53.248;-6.134;2022-12-18T08:06:23;7.20;89.80
38684;DHT22;24910;53.248;-6.134;2022-12-18T08:08:55;7.20;90.00
38684;DHT22;24910;53.248;-6.134;2022-12-18T08:11:25;7.30;90.10
38684;DHT22;24910;53.248;-6.134;2022-12-18T08:13:55;7.20;90.20
38684;DHT22;24910;53.248;-6.134;2022-12-18T08:16:24;7.20;90.30
38684;DHT22;24910;53.248;-6.134;2022-12-18T08:18:53;7.20;90.40
38684;DHT22;24910;53.248;-6.134;2022-12-18T08:21:24;7.20;90.50
38684;DHT22;24910;53.248;-6.134;2022-12-18T08:23:58;7.20;90.50
38684;DHT22;24910;53.248;-6.134;2022-12-18T08:26:29;7.20;90.60
38684;DHT22;24910;53.248;-6.134;2022-12-18T08:28:59;7.20;90.70
38684;DHT22;24910;53.248;-6.134;2022-12-18T08:31:29;7.20;90.80
38684;DHT22;24910;53.248;-6.134;2022-12-18T08:33:58;7.20;90.90
38684;DHT22;24910;53.248;-6.134;2022-12-18T08:36:27;7.20;90.90
38684;DHT22;24910;53.248;-6.134;2022-12-18T08:38:58;7.30;91.00
38684;DHT22;24910;53.248;-6.134;2022-12-18T08:41:32;7.20;91.10
38684;DHT22;24910;53.248;-6.134;2022-12-18T08:44:01;7.20;91.20
38684;DHT22;24910;53.248;-6.134;2022-12-18T08:46:47;7.20;91.30
38684;DHT22;24910;53.248;-6.134;2022-12-18T08:49:16;7.20;91.50
38684;DHT22;24910;53.248;-6.134;2022-12-18T08:51:45;7.20;91.60
38684;DHT22;24910;53.248;-6.134;2022-12-18T08:54:15;7.10;91.70
38684;DHT22;24910;53.248;-6.134;2022-12-18T08:56:44;7.20;91.90
38684;DHT22;24910;53.248;-6.134;2022-12-18T08:59:13;7.10;92.00
38684;DHT22;24910;53.248;-6.134;2022-12-18T09:01:47;7.20;92.10
38684;DHT22;24910;53.248;-6.134;2022-12-18T09:04:16;7.20;92.20
38684;DHT22;24910;53.248;-6.134;2022-12-18T09:06:45;7.20;92.40
38684;DHT22;24910;53.248;-6.134;2022-12-18T09:09:16;7.20;92.60
38684;DHT22;24910;53.248;-6.134;2022-12-18T09:11:46;7.10;92.70
38684;DHT22;24910;53.248;-6.134;2022-12-18T09:14:15;7.10;92.70
38684;DHT22;24910;53.248;-6.134;2022-12-18T09:16:44;7.20;92.90
38684;DHT22;24910;53.248;-6.134;2022-12-18T09:19:13;7.20;93.00
38684;DHT22;24910;53.248;-6.134;2022-12-18T09:21:42;7.20;93.10
38684;DHT22;24910;53.248;-6.134;2022-12-18T09:24:16;7.10;93.20
38684;DHT22;24910;53.248;-6.134;2022-12-18T09:26:46;7.10;93.40
38684;DHT22;24910;53.248;-6.134;2022-12-18T09:29:20;7.20;93.40
38684;DHT22;24910;53.248;-6.134;2022-12-18T09:31:49;7.20;93.50
38684;DHT22;24910;53.248;-6.134;2022-12-18T09:34:18;7.20;93.60
38684;DHT22;24910;53.248;-6.134;2022-12-18T09:36:49;7.20;93.70
38684;DHT22;24910;53.248;-6.134;2022-12-18T09:39:20;7.20;93.80
38684;DHT22;24910;53.248;-6.134;2022-12-18T09:41:52;7.10;93.90
38684;DHT22;24910;53.248;-6.134;2022-12-18T09:44:27;7.10;94.00
38684;DHT22;24910;53.248;-6.134;2022-12-18T09:47:04;7.20;94.10
38684;DHT22;24910;53.248;-6.134;2022-12-18T09:49:38;7.20;94.20
38684;DHT22;24910;53.248;-6.134;2022-12-18T09:52:13;7.20;94.20
38684;DHT22;24910;53.248;-6.134;2022-12-18T09:54:48;7.20;94.30
38684;DHT22;24910;53.248;-6.134;2022-12-18T09:57:20;7.20;94.30
38684;DHT22;24910;53.248;-6.134;2022-12-18T09:59:53;7.20;94.30
38684;DHT22;24910;53.248;-6.134;2022-12-18T10:02:24;7.20;94.30
38684;DHT22;24910;53.248;-6.134;2022-12-18T10:05:03;7.20;94.30
38684;DHT22;24910;53.248;-6.134;2022-12-18T10:07:43;7.20;94.40
38684;DHT22;24910;53.248;-6.134;2022-12-18T10:10:27;7.20;94.40
38684;DHT22;24910;53.248;-6.134;2022-12-18T10:13:08;7.20;94.40
38684;DHT22;24910;53.248;-6.134;2022-12-18T10:15:45;7.20;94.40
38684;DHT22;24910;53.248;-6.134;2022-12-18T10:18:25;7.30;94.40
38684;DHT22;24910;53.248;-6.134;2022-12-18T10:21:02;7.30;94.40
38684;DHT22;24910;53.248;-6.134;2022-12-18T10:23:39;7.30;94.40
38684;DHT22;24910;53.248;-6.134;2022-12-18T10:26:16;7.40;94.50
38684;DHT22;24910;53.248;-6.134;2022-12-18T10:28:46;7.40;94.50
38684;DHT22;24910;53.248;-6.134;2022-12-18T10:31:16;7.40;94.60
38684;DHT22;24910;53.248;-6.134;2022-12-18T10:33:47;7.40;94.50
38684;DHT22;24910;53.248;-6.134;2022-12-18T10:36:16;7.40;94.50
38684;DHT22;24910;53.248;-6.134;2022-12-18T10:38:45;7.50;94.50
38684;DHT22;24910;53.248;-6.134;2022-12-18T10:41:25;7.50;94.50
38684;DHT22;24910;53.248;-6.134;2022-12-18T10:44:16;7.50;94.50
38684;DHT22;24910;53.248;-6.134;2022-12-18T10:46:46;7.50;94.60
38684;DHT22;24910;53.248;-6.134;2022-12-18T10:49:23;7.60;94.60
38684;DHT22;24910;53.248;-6.134;2022-12-18T10:52:10;7.60;94.70
38684;DHT22;24910;53.248;-6.134;2022-12-18T10:54:48;7.60;94.70
38684;DHT22;24910;53.248;-6.134;2022-12-18T10:57:30;7.60;94.80
38684;DHT22;24910;53.248;-6.134;2022-12-18T11:00:23;7.60;94.90
38684;DHT22;24910;53.248;-6.134;2022-12-18T11:02:54;7.70;94.90
38684;DHT22;24910;53.248;-6.134;2022-12-18T11:05:28;7.70;94.90
38684;DHT22;24910;53.248;-6.134;2022-12-18T11:07:59;7.70;95.00
38684;DHT22;24910;53.248;-6.134;2022-12-18T11:10:31;7.70;95.00
38684;DHT22;24910;53.248;-6.134;2022-12-18T11:13:15;7.80;95.10
38684;DHT22;24910;53.248;-6.134;2022-12-18T11:15:45;7.80;95.10
38684;DHT22;24910;53.248;-6.134;2022-12-18T11:18:22;7.80;95.10
38684;DHT22;24910;53.248;-6.134;2022-12-18T11:20:53;7.90;95.10
38684;DHT22;24910;53.248;-6.134;2022-12-18T11:23:26;7.90;95.10
38684;DHT22;24910;53.248;-6.134;2022-12-18T11:25:57;7.90;95.10
38684;DHT22;24910;53.248;-6.134;2022-12-18T11:28:35;8.00;95.10
38684;DHT22;24910;53.248;-6.134;2022-12-18T11:31:20;8.00;95.10
38684;DHT22;24910;53.248;-6.134;2022-12-18T11:33:56;8.00;95.20
38684;DHT22;24910;53.248;-6.134;2022-12-18T11:36:48;8.00;95.10
38684;DHT22;24910;53.248;-6.134;2022-12-18T11:39:19;8.00;95.10
38684;DHT22;24910;53.248;-6.134;2022-12-18T11:41:53;8.10;95.20
38684;DHT22;24910;53.248;-6.134;2022-12-18T11:44:44;8.10;95.20
38684;DHT22;24910;53.248;-6.134;2022-12-18T11:47:21;8.10;95.20
38684;DHT22;24910;53.248;-6.134;2022-12-18T11:49:55;8.10;95.20
38684;DHT22;24910;53.248;-6.134;2022-12-18T11:52:28;8.10;95.20
38684;DHT22;24910;53.248;-6.134;2022-12-18T11:55:05;8.20;95.30
38684;DHT22;24910;53.248;-6.134;2022-12-18T11:57:45;8.20;95.30
38684;DHT22;24910;53.248;-6.134;2022-12-18T12:00:18;8.30;95.30
38684;DHT22;24910;53.248;-6.134;2022-12-18T12:03:09;8.30;95.20
38684;DHT22;24910;53.248;-6.134;2022-12-18T12:05:47;8.40;95.30
38684;DHT22;24910;53.248;-6.134;2022-12-18T12:08:23;8.40;95.30
38684;DHT22;24910;53.248;-6.134;2022-12-18T12:11:02;8.40;95.30
38684;DHT22;24910;53.248;-6.134;2022-12-18T12:13:43;8.40;95.30
38684;DHT22;24910;53.248;-6.134;2022-12-18T12:16:21;8.50;95.40
38684;DHT22;24910;53.248;-6.134;2022-12-18T12:19:06;8.50;95.40
38684;DHT22;24910;53.248;-6.134;2022-12-18T12:21:40;8.50;95.40
38684;DHT22;24910;53.248;-6.134;2022-12-18T12:24:23;8.60;95.40
38684;DHT22;24910;53.248;-6.134;2022-12-18T12:27:03;8.60;95.40
38684;DHT22;24910;53.248;-6.134;2022-12-18T12:29:45;8.60;95.50
38684;DHT22;24910;53.248;-6.134;2022-12-18T12:32:20;8.70;95.60
38684;DHT22;24910;53.248;-6.134;2022-12-18T12:35:03;8.70;95.60
38684;DHT22;24910;53.248;-6.134;2022-12-18T12:37:45;8.80;95.50
38684;DHT22;24910;53.248;-6.134;2022-12-18T12:40:19;8.80;95.60
38684;DHT22;24910;53.248;-6.134;2022-12-18T12:43:20;8.80;95.70
38684;DHT22;24910;53.248;-6.134;2022-12-18T12:45:54;8.80;95.70
38684;DHT22;24910;53.248;-6.134;2022-12-18T12:48:35;8.90;95.80
38684;DHT22;24910;53.248;-6.134;2022-12-18T12:51:11;8.90;95.80
38684;DHT22;24910;53.248;-6.134;2022-12-18T12:53:42;9.00;95.90
38684;DHT22;24910;53.248;-6.134;2022-12-18T12:56:14;9.00;95.90
38684;DHT22;24910;53.248;-6.134;2022-12-18T12:58:53;9.00;95.90
38684;DHT22;24910;53.248;-6.134;2022-12-18T13:01:31;9.00;96.00
38684;DHT22;24910;53.248;-6.134;2022-12-18T13:04:12;9.10;96.10
38684;DHT22;24910;53.248;-6.134;2022-12-18T13:06:48;9.10;96.20
38684;DHT22;24910;53.248;-6.134;2022-12-18T13:09:19;9.10;96.20
38684;DHT22;24910;53.248;-6.134;2022-12-18T13:11:48;9.20;96.20
38684;DHT22;24910;53.248;-6.134;2022-12-18T13:14:37;9.20;96.20
38684;DHT22;24910;53.248;-6.134;2022-12-18T13:20:18;9.30;96.30
38684;DHT22;24910;53.248;-6.134;2022-12-18T13:22:49;9.30;96.20
38684;DHT22;24910;53.248;-6.134;2022-12-18T13:25:34;9.30;96.20
38684;DHT22;24910;53.248;-6.134;2022-12-18T13:28:06;9.30;96.20
38684;DHT22;24910;53.248;-6.134;2022-12-18T13:30:57;9.40;96.20
38684;DHT22;24910;53.248;-6.134;2022-12-18T13:33:47;9.40;96.30
38684;DHT22;24910;53.248;-6.134;2022-12-18T13:36:38;9.40;96.30
38684;DHT22;24910;53.248;-6.134;2022-12-18T13:39:35;9.40;96.30
38684;DHT22;24910;53.248;-6.134;2022-12-18T13:42:38;9.50;96.40
38684;DHT22;24910;53.248;-6.134;2022-12-18T13:45:44;9.50;96.40
38684;DHT22;24910;53.248;-6.134;2022-12-18T13:48:24;9.50;96.40
38684;DHT22;24910;53.248;-6.134;2022-12-18T13:50:58;9.50;96.40
38684;DHT22;24910;53.248;-6.134;2022-12-18T13:53:33;9.50;96.50
38684;DHT22;24910;53.248;-6.134;2022-12-18T13:56:04;9.50;96.50
38684;DHT22;24910;53.248;-6.134;2022-12-18T13:58:34;9.60;96.60
38684;DHT22;24910;53.248;-6.134;2022-12-18T14:01:03;9.60;96.60
38684;DHT22;24910;53.248;-6.134;2022-12-18T14:03:32;9.60;96.60
38684;DHT22;24910;53.248;-6.134;2022-12-18T14:06:04;9.70;96.60
38684;DHT22;24910;53.248;-6.134;2022-12-18T14:08:38;9.70;96.70
38684;DHT22;24910;53.248;-6.134;2022-12-18T14:11:19;9.70;96.60
38684;DHT22;24910;53.248;-6.134;2022-12-18T14:13:49;9.70;96.70
38684;DHT22;24910;53.248;-6.134;2022-12-18T14:16:18;9.70;96.60
38684;DHT22;24910;53.248;-6.134;2022-12-18T14:18:52;9.80;96.60
38684;DHT22;24910;53.248;-6.134;2022-12-18T14:21:32;9.80;96.70
38684;DHT22;24910;53.248;-6.134;2022-12-18T14:24:16;9.80;96.70
38684;DHT22;24910;53.248;-6.134;2022-12-18T14:26:47;9.80;96.60
38684;DHT22;24910;53.248;-6.134;2022-12-18T14:29:25;9.90;96.60
38684;DHT22;24910;53.248;-6.134;2022-12-18T14:32:06;9.90;96.70
38684;DHT22;24910;53.248;-6.134;2022-12-18T14:34:43;9.90;96.60
38684;DHT22;24910;53.248;-6.134;2022-12-18T14:37:14;10.00;96.60
38684;DHT22;24910;53.248;-6.134;2022-12-18T14:39:59;10.00;96.60
38684;DHT22;24910;53.248;-6.134;2022-12-18T14:42:37;10.00;96.70
38684;DHT22;24910;53.248;-6.134;2022-12-18T14:45:33;10.00;96.70
38684;DHT22;24910;53.248;-6.134;2022-12-18T14:48:11;10.10;96.80
38684;DHT22;24910;53.248;-6.134;2022-12-18T14:50:58;10.10;96.70
38684;DHT22;24910;53.248;-6.134;2022-12-18T14:53:35;10.20;96.80
38684;DHT22;24910;53.248;-6.134;2022-12-18T14:56:15;10.20;96.70
38684;DHT22;24910;53.248;-6.134;2022-12-18T14:58:47;10.20;96.80
38684;DHT22;24910;53.248;-6.134;2022-12-18T15:01:21;10.30;96.90
38684;DHT22;24910;53.248;-6.134;2022-12-18T15:03:53;10.30;96.90
38684;DHT22;24910;53.248;-6.134;2022-12-18T15:06:28;10.30;96.90
38684;DHT22;24910;53.248;-6.134;2022-12-18T15:08:58;10.40;96.90
38684;DHT22;24910;53.248;-6.134;2022-12-18T15:11:43;10.40;96.90
38684;DHT22;24910;53.248;-6.134;2022-12-18T15:14:38;10.40;97.00
38684;DHT22;24910;53.248;-6.134;2022-12-18T15:17:17;10.50;97.10
38684;DHT22;24910;53.248;-6.134;2022-12-18T15:19:48;10.50;97.00
38684;DHT22;24910;53.248;-6.134;2022-12-18T15:22:21;10.50;97.00
38684;DHT22;24910;53.248;-6.134;2022-12-18T15:24:52;10.50;97.00
38684;DHT22;24910;53.248;-6.134;2022-12-18T15:27:31;10.50;97.00
38684;DHT22;24910;53.248;-6.134;2022-12-18T15:30:19;10.60;97.10
38684;DHT22;24910;53.248;-6.134;2022-12-18T15:32:49;10.60;97.10
38684;DHT22;24910;53.248;-6.134;2022-12-18T15:35:21;10.60;97.10
38684;DHT22;24910;53.248;-6.134;2022-12-18T15:37:51;10.70;97.20
38684;DHT22;24910;53.248;-6.134;2022-12-18T15:40:22;10.70;97.20
38684;DHT22;24910;53.248;-6.134;2022-12-18T15:42:54;10.70;97.20
38684;DHT22;24910;53.248;-6.134;2022-12-18T15:45:41;10.70;97.20
38684;DHT22;24910;53.248;-6.134;2022-12-18T15:48:19;10.80;97.20
38684;DHT22;24910;53.248;-6.134;2022-12-18T15:50:49;10.80;97.20
38684;DHT22;24910;53.248;-6.134;2022-12-18T15:53:19;10.80;97.20
38684;DHT22;24910;53.248;-6.134;2022-12-18T15:55:48;10.80;97.20
38684;DHT22;24910;53.248;-6.134;2022-12-18T15:58:36;10.90;97.30
38684;DHT22;24910;53.248;-6.134;2022-12-18T16:01:05;10.90;97.30
38684;DHT22;24910;53.248;-6.134;2022-12-18T16:03:36;10.90;97.30
38684;DHT22;24910;53.248;-6.134;2022-12-18T16:06:06;11.00;97.30
38684;DHT22;24910;53.248;-6.134;2022-12-18T16:08:35;11.00;97.30
38684;DHT22;24910;53.248;-6.134;2022-12-18T16:11:09;11.00;97.30
38684;DHT22;24910;53.248;-6.134;2022-12-18T16:13:42;11.00;97.30